Country
Station

 

Weather  for  New Orleans, Naval Air Station  -  United States    United States

  
22 °C (72 °F)
    
 
 

Current METAR for New Orleans, Naval Air Station is :

KNBG 181355Z 04007KT 10SM BKN250 22/15 A3022 RMK SLP232 T021700150

 

This is a report for New Orleans, Naval Air Station - United States.
 
The report was made one hour and 2 minutes ago, at 13:55 UTC .
The wind was blowing at a speed of 3.6 meters per second (8.1 miles per hour) from northeast (040°).
 
The temperature was 22 °C (72 °F), with a dew-point at 15 °C (59 °F).
The temperature felt like 24 °C (76 °F).
 
The atmospheric pressure was 1023 hPa (30.22 inHg).
The relative humidity was 64.5%.
 
There were broken clouds at a height of 7620 meters (25000 feet).
 
The overall visibility was 16.1 kilometers (10.0 miles).
 

 
 
 
 

Country :   A   B   C   D   E   F   G   H   I   J   K   L   M   N   O   P   Q   R   S   T   U   V   W   Y   Z

 

Site Info  |  Disclaimer  |  Credits  |  Privacy
Contact us  |  Add to favorites
© 2013-2018 METARs - All rights reserved